Terminal Aerodrome Forecast
Issued by NWS

Current Version | Previous Version | Text Only | Print | Product List | Glossary On
Versions: 1 2 3 4 5 6 7 8 9 10 11 12 13 14 15 16 17 18
130
FTAK31 PAJN 061128
TAFAYA
TAF
PAYA 061128Z 0612/0712 07005KT P6SM VCSH SCT025 OVC040
      TEMPO 0612/0616 3SM -SHSN OVC025
     FM062000 10007KT 6SM -SHSN SCT025 OVC050
     FM070000 08004KT P6SM OVC050
     FM070600 08003KT P6SM SCT003 SCT050
      AMD LTD TO CLD VIS AND WIND 0701/0709=

USA.gov is the U.S. government's official web portal to all federal, state and local government web resources and services.